LFPB 181530Z AUTO 34008KT 310V030 CAVOK 28/15 Q1013 TEMPO 4000 SHRA BECMG SCT030TCU

ElémentsDécodage
LFPB Station météo située sur l'aérodrome de PARIS Le-Bourget
181530Z émis le 18 du mois à 15h30 UTC
AUTO Bulletin édité par un automate
34008KT vent du 340°, 08 noeuds
310V030 vent de direction variable entre 310° et 030°
CAVOK Ceiling And Visibility OK
- Visibilité de 10 Km ou plus
- Pas de nuage au-dessous de 1500m ou au-dessous de l'altitude minimale du secteur la plus élevée (si>1500m) et absence de CB
- pas de temps présent significatif
28/15 température 28°C, point de rosée 15°C
 soit une humidité relative de 45%
Q1013 la pression au niveau de la mer (QNH) est de 1013 hPa
TEMPO fluctuation temporaire prévue
4000 visibilité horizontale de 4000 mètres
SHRA averse(s) de pluie
BECMG fluctuation du temps prévue
SCT030TCU nuages épars (3/8 à 4/8) à 3000 pieds
 présence de cumulus congestus